sensor_id;sensor_type;location;lat;lon;timestamp;pressure;altitude;pressure_sealevel;temperature;humidity
43155;BME280;34212;51.018;13.586;2023-07-29T00:03:07;97273.69;;;20.86;73.56
43155;BME280;34212;51.018;13.586;2023-07-29T00:08:09;97269.59;;;20.84;73.63
43155;BME280;34212;51.018;13.586;2023-07-29T00:13:10;97270.13;;;20.81;73.59
43155;BME280;34212;51.018;13.586;2023-07-29T00:18:12;97277.72;;;20.79;73.66
43155;BME280;34212;51.018;13.586;2023-07-29T00:23:13;97276.56;;;20.74;73.90
43155;BME280;34212;51.018;13.586;2023-07-29T00:28:15;97270.03;;;20.70;73.89
43155;BME280;34212;51.018;13.586;2023-07-29T00:33:18;97270.56;;;20.67;73.84
43155;BME280;34212;51.018;13.586;2023-07-29T00:38:22;97266.47;;;20.65;74.00
43155;BME280;34212;51.018;13.586;2023-07-29T00:43:23;97263.72;;;20.60;73.90
43155;BME280;34212;51.018;13.586;2023-07-29T00:48:25;97256.34;;;20.55;73.96
43155;BME280;34212;51.018;13.586;2023-07-29T00:53:28;97261.47;;;20.51;74.05
43155;BME280;34212;51.018;13.586;2023-07-29T00:58:29;97274.69;;;20.48;74.04
43155;BME280;34212;51.018;13.586;2023-07-29T01:03:31;97254.63;;;20.44;74.20
43155;BME280;34212;51.018;13.586;2023-07-29T01:08:55;97252.16;;;20.42;74.22
43155;BME280;34212;51.018;13.586;2023-07-29T01:14:29;97249.72;;;20.41;74.76
43155;BME280;34212;51.018;13.586;2023-07-29T01:19:48;97240.22;;;20.38;74.31
43155;BME280;34212;51.018;13.586;2023-07-29T01:24:58;97236.88;;;20.31;74.26
43155;BME280;34212;51.018;13.586;2023-07-29T01:30:01;97226.25;;;20.24;74.24
43155;BME280;34212;51.018;13.586;2023-07-29T01:40:14;97234.06;;;20.21;74.79
43155;BME280;34212;51.018;13.586;2023-07-29T01:45:16;97231.63;;;20.19;74.63
43155;BME280;34212;51.018;13.586;2023-07-29T01:50:18;97233.75;;;20.17;74.61
43155;BME280;34212;51.018;13.586;2023-07-29T01:55:20;97231.00;;;20.12;74.67
43155;BME280;34212;51.018;13.586;2023-07-29T02:00:22;97232.53;;;20.03;74.76
43155;BME280;34212;51.018;13.586;2023-07-29T02:05:24;97228.13;;;19.97;74.98
43155;BME280;34212;51.018;13.586;2023-07-29T02:10:25;97237.81;;;19.93;75.23
43155;BME280;34212;51.018;13.586;2023-07-29T02:15:27;97232.41;;;19.93;75.09
43155;BME280;34212;51.018;13.586;2023-07-29T02:20:29;97222.41;;;19.93;75.22
43155;BME280;34212;51.018;13.586;2023-07-29T02:25:30;97233.22;;;19.93;75.43
43155;BME280;34212;51.018;13.586;2023-07-29T02:30:32;97229.97;;;19.91;75.38
43155;BME280;34212;51.018;13.586;2023-07-29T02:35:33;97238.34;;;19.90;75.52
43155;BME280;34212;51.018;13.586;2023-07-29T02:40:35;97238.84;;;19.87;75.57
43155;BME280;34212;51.018;13.586;2023-07-29T02:45:36;97248.03;;;19.86;75.57
43155;BME280;34212;51.018;13.586;2023-07-29T02:50:38;97258.84;;;19.86;75.43
43155;BME280;34212;51.018;13.586;2023-07-29T02:55:40;97257.22;;;19.84;75.63
43155;BME280;34212;51.018;13.586;2023-07-29T03:00:42;97268.09;;;19.90;75.79
43155;BME280;34212;51.018;13.586;2023-07-29T03:05:44;97273.06;;;19.98;75.86
43155;BME280;34212;51.018;13.586;2023-07-29T03:10:46;97260.72;;;20.07;75.81
43155;BME280;34212;51.018;13.586;2023-07-29T03:15:47;97265.69;;;20.15;75.84
43155;BME280;34212;51.018;13.586;2023-07-29T03:20:50;97274.44;;;20.22;76.03
43155;BME280;34212;51.018;13.586;2023-07-29T03:25:51;97264.22;;;20.29;75.81
43155;BME280;34212;51.018;13.586;2023-07-29T03:30:58;97258.00;;;20.34;76.05
43155;BME280;34212;51.018;13.586;2023-07-29T03:36:00;97265.97;;;20.41;75.89
43155;BME280;34212;51.018;13.586;2023-07-29T03:41:01;97257.31;;;20.44;76.12
43155;BME280;34212;51.018;13.586;2023-07-29T03:46:04;97251.41;;;20.47;75.88
43155;BME280;34212;51.018;13.586;2023-07-29T03:51:09;97263.34;;;20.51;75.88
43155;BME280;34212;51.018;13.586;2023-07-29T03:56:10;97255.31;;;20.56;75.83
43155;BME280;34212;51.018;13.586;2023-07-29T04:01:12;97249.09;;;20.61;75.51
43155;BME280;34212;51.018;13.586;2023-07-29T04:06:13;97251.03;;;20.65;75.46
43155;BME280;34212;51.018;13.586;2023-07-29T04:11:15;97253.78;;;20.70;75.55
43155;BME280;34212;51.018;13.586;2023-07-29T04:16:17;97259.25;;;20.75;75.65
43155;BME280;34212;51.018;13.586;2023-07-29T04:21:18;97257.66;;;20.80;75.58
43155;BME280;34212;51.018;13.586;2023-07-29T04:26:20;97257.66;;;20.80;75.67
43155;BME280;34212;51.018;13.586;2023-07-29T04:31:21;97262.84;;;20.81;75.66
43155;BME280;34212;51.018;13.586;2023-07-29T04:36:23;97259.28;;;20.81;75.52
43155;BME280;34212;51.018;13.586;2023-07-29T04:41:24;97269.88;;;20.82;75.38
43155;BME280;34212;51.018;13.586;2023-07-29T04:46:26;97265.84;;;20.85;75.31
43155;BME280;34212;51.018;13.586;2023-07-29T04:51:27;97259.31;;;20.86;75.40
43155;BME280;34212;51.018;13.586;2023-07-29T04:56:29;97247.97;;;20.89;75.60
43155;BME280;34212;51.018;13.586;2023-07-29T05:01:30;97247.72;;;20.90;75.37
43155;BME280;34212;51.018;13.586;2023-07-29T05:06:32;97253.44;;;20.94;75.22
43155;BME280;34212;51.018;13.586;2023-07-29T05:11:34;97252.91;;;20.97;75.53
43155;BME280;34212;51.018;13.586;2023-07-29T05:16:35;97257.81;;;21.00;75.41
43155;BME280;34212;51.018;13.586;2023-07-29T05:21:39;97243.19;;;21.01;75.12
43155;BME280;34212;51.018;13.586;2023-07-29T05:26:40;97231.25;;;21.02;75.23
43155;BME280;34212;51.018;13.586;2023-07-29T05:31:42;97234.56;;;21.09;75.51
43155;BME280;34212;51.018;13.586;2023-07-29T05:36:44;97226.50;;;21.19;75.38
43155;BME280;34212;51.018;13.586;2023-07-29T05:41:45;97232.25;;;21.28;74.89
43155;BME280;34212;51.018;13.586;2023-07-29T05:46:47;97226.63;;;21.40;75.04
43155;BME280;34212;51.018;13.586;2023-07-29T05:51:49;97214.47;;;21.48;74.55
43155;BME280;34212;51.018;13.586;2023-07-29T05:56:53;97223.75;;;21.57;74.67
43155;BME280;34212;51.018;13.586;2023-07-29T06:01:55;97219.16;;;21.67;74.20
43155;BME280;34212;51.018;13.586;2023-07-29T06:06:56;97221.13;;;21.82;74.03
43155;BME280;34212;51.018;13.586;2023-07-29T06:11:58;97220.34;;;21.97;73.56
43155;BME280;34212;51.018;13.586;2023-07-29T06:17:00;97218.22;;;22.09;73.16
43155;BME280;34212;51.018;13.586;2023-07-29T06:22:02;97215.81;;;22.23;72.93
43155;BME280;34212;51.018;13.586;2023-07-29T06:27:04;97218.81;;;22.32;73.33
43155;BME280;34212;51.018;13.586;2023-07-29T06:32:05;97231.06;;;22.34;72.80
43155;BME280;34212;51.018;13.586;2023-07-29T06:37:07;97229.72;;;22.37;72.36
43155;BME280;34212;51.018;13.586;2023-07-29T06:42:09;97226.16;;;22.42;72.40
43155;BME280;34212;51.018;13.586;2023-07-29T06:47:10;97233.50;;;22.51;72.04
43155;BME280;34212;51.018;13.586;2023-07-29T06:52:12;97240.59;;;22.63;71.39
43155;BME280;34212;51.018;13.586;2023-07-29T06:57:13;97227.28;;;22.71;70.91
43155;BME280;34212;51.018;13.586;2023-07-29T07:02:14;97225.13;;;22.83;70.54
43155;BME280;34212;51.018;13.586;2023-07-29T07:07:16;97229.72;;;22.93;70.14
43155;BME280;34212;51.018;13.586;2023-07-29T07:12:18;97212.56;;;23.08;70.98
43155;BME280;34212;51.018;13.586;2023-07-29T07:17:19;97215.28;;;23.23;70.20
43155;BME280;34212;51.018;13.586;2023-07-29T07:22:21;97191.00;;;23.42;70.70
43155;BME280;34212;51.018;13.586;2023-07-29T07:27:22;97198.03;;;23.54;69.79
43155;BME280;34212;51.018;13.586;2023-07-29T07:32:23;97199.66;;;23.65;68.78
43155;BME280;34212;51.018;13.586;2023-07-29T07:37:25;97186.56;;;23.77;68.06
43155;BME280;34212;51.018;13.586;2023-07-29T07:42:26;97180.00;;;23.83;68.86
43155;BME280;34212;51.018;13.586;2023-07-29T07:47:28;97173.16;;;23.86;67.59
43155;BME280;34212;51.018;13.586;2023-07-29T07:52:29;97161.38;;;23.95;68.15
43155;BME280;34212;51.018;13.586;2023-07-29T07:57:32;97164.09;;;23.95;67.03
43155;BME280;34212;51.018;13.586;2023-07-29T08:02:34;97168.41;;;24.07;66.17
43155;BME280;34212;51.018;13.586;2023-07-29T08:07:35;97165.00;;;24.25;67.49
43155;BME280;34212;51.018;13.586;2023-07-29T08:12:37;97171.25;;;24.31;65.94
43155;BME280;34212;51.018;13.586;2023-07-29T08:17:38;97156.19;;;24.38;66.63
43155;BME280;34212;51.018;13.586;2023-07-29T08:22:40;97155.06;;;24.45;65.08
43155;BME280;34212;51.018;13.586;2023-07-29T08:27:41;97150.63;;;24.54;63.05
43155;BME280;34212;51.018;13.586;2023-07-29T08:32:43;97146.09;;;24.73;64.34
43155;BME280;34212;51.018;13.586;2023-07-29T08:37:46;97156.81;;;24.94;63.38
43155;BME280;34212;51.018;13.586;2023-07-29T08:42:48;97155.91;;;25.03;62.75
43155;BME280;34212;51.018;13.586;2023-07-29T08:47:55;97152.41;;;24.98;62.04
43155;BME280;34212;51.018;13.586;2023-07-29T08:53:00;97154.47;;;25.11;62.18
43155;BME280;34212;51.018;13.586;2023-07-29T08:58:04;97163.38;;;25.22;61.75
43155;BME280;34212;51.018;13.586;2023-07-29T09:03:06;97157.34;;;25.25;61.53
43155;BME280;34212;51.018;13.586;2023-07-29T09:08:09;97153.78;;;25.24;61.51
43155;BME280;34212;51.018;13.586;2023-07-29T09:13:11;97173.97;;;25.23;60.77
43155;BME280;34212;51.018;13.586;2023-07-29T09:18:15;97154.28;;;25.26;60.09
43155;BME280;34212;51.018;13.586;2023-07-29T09:23:17;97162.88;;;25.39;60.38
43155;BME280;34212;51.018;13.586;2023-07-29T09:28:19;97157.78;;;25.56;59.90
43155;BME280;34212;51.018;13.586;2023-07-29T09:33:21;97156.38;;;25.58;59.89
43155;BME280;34212;51.018;13.586;2023-07-29T09:38:27;97155.00;;;25.61;59.69
43155;BME280;34212;51.018;13.586;2023-07-29T09:43:30;97149.22;;;25.63;59.45
43155;BME280;34212;51.018;13.586;2023-07-29T09:48:36;97158.88;;;25.55;58.96
43155;BME280;34212;51.018;13.586;2023-07-29T09:53:46;97166.28;;;25.30;59.49
43155;BME280;34212;51.018;13.586;2023-07-29T09:58:48;97165.66;;;25.09;60.05
43155;BME280;34212;51.018;13.586;2023-07-29T10:03:50;97161.59;;;25.07;60.51
43155;BME280;34212;51.018;13.586;2023-07-29T10:08:52;97151.13;;;25.19;61.28
43155;BME280;34212;51.018;13.586;2023-07-29T10:13:54;97145.78;;;25.33;60.95
43155;BME280;34212;51.018;13.586;2023-07-29T10:19:09;97128.34;;;25.53;60.95
43155;BME280;34212;51.018;13.586;2023-07-29T10:24:15;97116.03;;;25.74;60.93
43155;BME280;34212;51.018;13.586;2023-07-29T10:29:23;97118.00;;;25.93;59.31
43155;BME280;34212;51.018;13.586;2023-07-29T10:34:25;97119.00;;;25.97;58.01
43155;BME280;34212;51.018;13.586;2023-07-29T10:39:27;97132.72;;;25.92;56.69
43155;BME280;34212;51.018;13.586;2023-07-29T10:49:50;97118.06;;;25.88;56.17
43155;BME280;34212;51.018;13.586;2023-07-29T10:54:53;97128.00;;;25.97;55.11
43155;BME280;34212;51.018;13.586;2023-07-29T10:59:55;97123.00;;;26.05;55.25
43155;BME280;34212;51.018;13.586;2023-07-29T11:04:58;97127.56;;;26.09;56.46
43155;BME280;34212;51.018;13.586;2023-07-29T11:10:01;97122.13;;;25.90;57.34
43155;BME280;34212;51.018;13.586;2023-07-29T11:15:06;97140.22;;;25.62;59.22
43155;BME280;34212;51.018;13.586;2023-07-29T11:20:14;97120.81;;;24.92;62.40
43155;BME280;34212;51.018;13.586;2023-07-29T11:25:17;97103.97;;;24.60;63.84
43155;BME280;34212;51.018;13.586;2023-07-29T11:30:19;97111.97;;;24.52;65.69
43155;BME280;34212;51.018;13.586;2023-07-29T11:35:21;97111.78;;;24.43;66.27
43155;BME280;34212;51.018;13.586;2023-07-29T11:40:23;97102.25;;;24.35;67.08
43155;BME280;34212;51.018;13.586;2023-07-29T11:45:24;97110.50;;;24.30;67.27
43155;BME280;34212;51.018;13.586;2023-07-29T11:50:36;97111.34;;;24.26;66.40
43155;BME280;34212;51.018;13.586;2023-07-29T11:55:38;97104.53;;;24.23;66.66
43155;BME280;34212;51.018;13.586;2023-07-29T12:00:39;97100.16;;;24.27;66.40
43155;BME280;34212;51.018;13.586;2023-07-29T12:05:41;97102.59;;;24.29;65.77
43155;BME280;34212;51.018;13.586;2023-07-29T12:10:43;97103.38;;;24.34;65.05
43155;BME280;34212;51.018;13.586;2023-07-29T12:15:45;97106.59;;;24.41;64.45
43155;BME280;34212;51.018;13.586;2023-07-29T12:20:46;97089.56;;;24.55;64.44
43155;BME280;34212;51.018;13.586;2023-07-29T12:25:48;97083.22;;;24.64;63.46
43155;BME280;34212;51.018;13.586;2023-07-29T12:30:56;97072.16;;;24.80;63.73
43155;BME280;34212;51.018;13.586;2023-07-29T12:35:57;97069.00;;;24.92;63.11
43155;BME280;34212;51.018;13.586;2023-07-29T12:40:59;97066.41;;;25.05;62.30
43155;BME280;34212;51.018;13.586;2023-07-29T12:46:01;97062.25;;;25.13;62.25
43155;BME280;34212;51.018;13.586;2023-07-29T12:51:02;97059.09;;;25.25;62.25
43155;BME280;34212;51.018;13.586;2023-07-29T12:56:05;97046.13;;;25.35;61.67
43155;BME280;34212;51.018;13.586;2023-07-29T13:01:07;97030.66;;;25.50;61.57
43155;BME280;34212;51.018;13.586;2023-07-29T13:06:10;97033.00;;;25.56;61.09
43155;BME280;34212;51.018;13.586;2023-07-29T13:11:12;97044.03;;;25.51;59.84
43155;BME280;34212;51.018;13.586;2023-07-29T13:16:14;97050.13;;;25.43;58.83
43155;BME280;34212;51.018;13.586;2023-07-29T13:21:16;97041.50;;;25.55;57.54
43155;BME280;34212;51.018;13.586;2023-07-29T13:26:17;97048.34;;;25.71;57.68
43155;BME280;34212;51.018;13.586;2023-07-29T13:31:19;97038.63;;;26.36;57.17
43155;BME280;34212;51.018;13.586;2023-07-29T13:36:20;97043.53;;;26.53;56.62
43155;BME280;34212;51.018;13.586;2023-07-29T13:41:22;97039.66;;;26.54;56.61
43155;BME280;34212;51.018;13.586;2023-07-29T13:46:23;97042.31;;;26.59;56.22
43155;BME280;34212;51.018;13.586;2023-07-29T13:51:25;97032.59;;;26.53;55.21
43155;BME280;34212;51.018;13.586;2023-07-29T13:56:26;97039.63;;;26.40;54.73
43155;BME280;34212;51.018;13.586;2023-07-29T14:01:28;97036.97;;;26.35;53.97
43155;BME280;34212;51.018;13.586;2023-07-29T14:06:29;97039.81;;;26.30;52.88
43155;BME280;34212;51.018;13.586;2023-07-29T14:11:46;97036.25;;;26.29;52.91
43155;BME280;34212;51.018;13.586;2023-07-29T14:16:48;97037.06;;;26.30;51.85
43155;BME280;34212;51.018;13.586;2023-07-29T14:21:50;97026.22;;;26.24;51.80
43155;BME280;34212;51.018;13.586;2023-07-29T14:26:52;97019.63;;;26.25;51.57
43155;BME280;34212;51.018;13.586;2023-07-29T14:31:53;97018.53;;;26.26;50.73
43155;BME280;34212;51.018;13.586;2023-07-29T14:36:54;97006.19;;;26.29;51.23
43155;BME280;34212;51.018;13.586;2023-07-29T14:41:56;97000.34;;;26.36;51.07
43155;BME280;34212;51.018;13.586;2023-07-29T14:46:57;96995.56;;;26.41;50.31
43155;BME280;34212;51.018;13.586;2023-07-29T14:51:59;97001.88;;;26.42;49.14
43155;BME280;34212;51.018;13.586;2023-07-29T14:57:00;97004.00;;;26.45;49.43
43155;BME280;34212;51.018;13.586;2023-07-29T15:02:02;96993.56;;;26.47;48.90
43155;BME280;34212;51.018;13.586;2023-07-29T15:07:04;97010.50;;;26.49;49.57
43155;BME280;34212;51.018;13.586;2023-07-29T15:12:06;97003.03;;;26.55;49.85
43155;BME280;34212;51.018;13.586;2023-07-29T15:17:07;96998.34;;;26.69;49.72
43155;BME280;34212;51.018;13.586;2023-07-29T15:22:09;96993.00;;;26.78;48.12
43155;BME280;34212;51.018;13.586;2023-07-29T15:27:11;96981.53;;;26.76;48.00
43155;BME280;34212;51.018;13.586;2023-07-29T15:32:13;96995.94;;;26.81;48.58
43155;BME280;34212;51.018;13.586;2023-07-29T15:37:15;97001.72;;;26.80;48.61
43155;BME280;34212;51.018;13.586;2023-07-29T15:42:16;97011.34;;;26.77;48.11
43155;BME280;34212;51.018;13.586;2023-07-29T15:47:18;97005.84;;;26.63;48.04
43155;BME280;34212;51.018;13.586;2023-07-29T15:52:20;97010.72;;;26.53;48.55
43155;BME280;34212;51.018;13.586;2023-07-29T15:57:21;97025.22;;;26.34;48.49
43155;BME280;34212;51.018;13.586;2023-07-29T16:02:23;97030.53;;;26.12;48.31
43155;BME280;34212;51.018;13.586;2023-07-29T16:07:24;97032.63;;;26.01;48.74
43155;BME280;34212;51.018;13.586;2023-07-29T16:12:26;97030.59;;;25.93;49.05
43155;BME280;34212;51.018;13.586;2023-07-29T16:17:28;97043.84;;;25.80;49.24
43155;BME280;34212;51.018;13.586;2023-07-29T16:22:30;97046.75;;;25.70;49.46
43155;BME280;34212;51.018;13.586;2023-07-29T16:27:31;97062.75;;;25.58;49.88
43155;BME280;34212;51.018;13.586;2023-07-29T16:32:33;97088.03;;;25.45;50.00
43155;BME280;34212;51.018;13.586;2023-07-29T16:37:35;97147.47;;;25.00;50.10
43155;BME280;34212;51.018;13.586;2023-07-29T16:42:37;97176.59;;;24.02;51.24
43155;BME280;34212;51.018;13.586;2023-07-29T16:47:39;97176.97;;;23.15;54.85
43155;BME280;34212;51.018;13.586;2023-07-29T16:52:40;97193.97;;;21.82;57.73
43155;BME280;34212;51.018;13.586;2023-07-29T16:57:42;97201.38;;;20.92;61.79
43155;BME280;34212;51.018;13.586;2023-07-29T17:02:43;97187.75;;;20.49;64.75
43155;BME280;34212;51.018;13.586;2023-07-29T17:07:45;97194.03;;;20.23;64.81
43155;BME280;34212;51.018;13.586;2023-07-29T17:12:46;97187.69;;;20.12;66.09
43155;BME280;34212;51.018;13.586;2023-07-29T17:17:48;97156.13;;;19.96;67.87
43155;BME280;34212;51.018;13.586;2023-07-29T17:22:49;97160.66;;;19.85;69.20
43155;BME280;34212;51.018;13.586;2023-07-29T17:27:51;97187.19;;;19.88;70.37
43155;BME280;34212;51.018;13.586;2023-07-29T17:32:52;97196.06;;;19.83;70.96
43155;BME280;34212;51.018;13.586;2023-07-29T17:37:54;97191.16;;;19.80;71.81
43155;BME280;34212;51.018;13.586;2023-07-29T17:42:56;97182.03;;;19.87;72.11
43155;BME280;34212;51.018;13.586;2023-07-29T17:47:57;97189.72;;;20.00;72.79
43155;BME280;34212;51.018;13.586;2023-07-29T17:53:00;97206.09;;;20.10;73.47
43155;BME280;34212;51.018;13.586;2023-07-29T17:58:01;97192.06;;;20.18;73.31
43155;BME280;34212;51.018;13.586;2023-07-29T18:03:03;97196.47;;;20.24;74.08
43155;BME280;34212;51.018;13.586;2023-07-29T18:08:05;97187.59;;;20.29;74.57
43155;BME280;34212;51.018;13.586;2023-07-29T18:13:06;97194.59;;;20.25;75.26
43155;BME280;34212;51.018;13.586;2023-07-29T18:18:09;97203.53;;;20.25;75.91
43155;BME280;34212;51.018;13.586;2023-07-29T18:23:10;97195.94;;;20.27;76.01
43155;BME280;34212;51.018;13.586;2023-07-29T18:28:13;97207.34;;;20.29;76.35
43155;BME280;34212;51.018;13.586;2023-07-29T18:33:15;97212.19;;;20.27;76.45
43155;BME280;34212;51.018;13.586;2023-07-29T18:38:16;97209.47;;;20.22;76.59
43155;BME280;34212;51.018;13.586;2023-07-29T18:43:18;97201.28;;;20.17;77.05
43155;BME280;34212;51.018;13.586;2023-07-29T18:48:19;97203.63;;;20.08;77.11
43155;BME280;34212;51.018;13.586;2023-07-29T18:53:21;97201.94;;;20.02;77.43
43155;BME280;34212;51.018;13.586;2023-07-29T18:58:22;97217.28;;;19.97;77.81
43155;BME280;34212;51.018;13.586;2023-07-29T19:03:24;97210.22;;;19.91;78.07
43155;BME280;34212;51.018;13.586;2023-07-29T19:08:28;97201.47;;;19.83;78.22
43155;BME280;34212;51.018;13.586;2023-07-29T19:13:29;97196.53;;;19.75;78.20
43155;BME280;34212;51.018;13.586;2023-07-29T19:18:31;97202.38;;;19.67;78.20
43155;BME280;34212;51.018;13.586;2023-07-29T19:23:32;97213.28;;;19.55;78.39
43155;BME280;34212;51.018;13.586;2023-07-29T19:28:34;97212.09;;;19.46;78.61
43155;BME280;34212;51.018;13.586;2023-07-29T19:33:35;97208.19;;;19.37;78.80
43155;BME280;34212;51.018;13.586;2023-07-29T19:38:41;97200.53;;;19.29;78.94
43155;BME280;34212;51.018;13.586;2023-07-29T19:43:43;97204.47;;;19.21;78.92
43155;BME280;34212;51.018;13.586;2023-07-29T19:48:48;97211.44;;;19.17;78.76
43155;BME280;34212;51.018;13.586;2023-07-29T19:53:52;97216.75;;;19.12;78.85
43155;BME280;34212;51.018;13.586;2023-07-29T19:58:54;97223.75;;;19.08;78.97
43155;BME280;34212;51.018;13.586;2023-07-29T20:03:55;97230.94;;;19.02;79.01
43155;BME280;34212;51.018;13.586;2023-07-29T20:08:57;97226.03;;;18.99;78.96
43155;BME280;34212;51.018;13.586;2023-07-29T20:13:59;97236.78;;;18.94;79.30
43155;BME280;34212;51.018;13.586;2023-07-29T20:19:00;97241.34;;;18.93;79.11
43155;BME280;34212;51.018;13.586;2023-07-29T20:24:02;97243.56;;;18.97;79.32
43155;BME280;34212;51.018;13.586;2023-07-29T20:29:06;97227.34;;;18.97;78.95
43155;BME280;34212;51.018;13.586;2023-07-29T20:34:07;97235.47;;;18.97;78.58
43155;BME280;34212;51.018;13.586;2023-07-29T20:39:09;97240.84;;;18.97;78.85
43155;BME280;34212;51.018;13.586;2023-07-29T20:44:10;97251.34;;;18.93;78.96
43155;BME280;34212;51.018;13.586;2023-07-29T20:49:13;97253.50;;;18.91;78.82
43155;BME280;34212;51.018;13.586;2023-07-29T20:54:14;97259.72;;;18.91;78.84
43155;BME280;34212;51.018;13.586;2023-07-29T20:59:16;97266.41;;;18.89;78.79
43155;BME280;34212;51.018;13.586;2023-07-29T21:04:17;97266.91;;;18.86;78.95
43155;BME280;34212;51.018;13.586;2023-07-29T21:09:19;97259.88;;;18.85;79.09
43155;BME280;34212;51.018;13.586;2023-07-29T21:14:24;97257.19;;;18.85;79.07
43155;BME280;34212;51.018;13.586;2023-07-29T21:19:25;97266.59;;;18.82;79.46
43155;BME280;34212;51.018;13.586;2023-07-29T21:24:27;97273.03;;;18.81;79.44
43155;BME280;34212;51.018;13.586;2023-07-29T21:29:28;97278.44;;;18.81;79.60
43155;BME280;34212;51.018;13.586;2023-07-29T21:34:30;97266.00;;;18.80;79.62
43155;BME280;34212;51.018;13.586;2023-07-29T21:39:31;97270.34;;;18.81;79.69
43155;BME280;34212;51.018;13.586;2023-07-29T21:44:32;97272.00;;;18.82;79.71
43155;BME280;34212;51.018;13.586;2023-07-29T21:49:34;97266.59;;;18.82;79.94
43155;BME280;34212;51.018;13.586;2023-07-29T21:54:36;97273.63;;;18.83;79.61
43155;BME280;34212;51.018;13.586;2023-07-29T21:59:37;97266.25;;;18.79;79.62
43155;BME280;34212;51.018;13.586;2023-07-29T22:04:39;97265.09;;;18.75;79.69
43155;BME280;34212;51.018;13.586;2023-07-29T22:09:40;97267.25;;;18.73;79.70
43155;BME280;34212;51.018;13.586;2023-07-29T22:14:45;97267.44;;;18.71;79.79
43155;BME280;34212;51.018;13.586;2023-07-29T22:19:46;97272.25;;;18.69;79.73
43155;BME280;34212;51.018;13.586;2023-07-29T22:24:47;97281.69;;;18.66;79.94
43155;BME280;34212;51.018;13.586;2023-07-29T22:29:53;97279.81;;;18.67;79.80
43155;BME280;34212;51.018;13.586;2023-07-29T22:34:55;97278.16;;;18.66;79.83
43155;BME280;34212;51.018;13.586;2023-07-29T22:39:56;97281.44;;;18.68;79.93
43155;BME280;34212;51.018;13.586;2023-07-29T22:44:57;97282.03;;;18.70;80.23
43155;BME280;34212;51.018;13.586;2023-07-29T22:50:00;97287.66;;;18.68;79.96
43155;BME280;34212;51.018;13.586;2023-07-29T22:55:02;97287.31;;;18.65;79.87
43155;BME280;34212;51.018;13.586;2023-07-29T23:00:04;97286.19;;;18.61;79.86
43155;BME280;34212;51.018;13.586;2023-07-29T23:05:06;97293.97;;;18.57;79.77
43155;BME280;34212;51.018;13.586;2023-07-29T23:10:08;97301.25;;;18.57;79.95
43155;BME280;34212;51.018;13.586;2023-07-29T23:15:10;97310.66;;;18.54;79.89
43155;BME280;34212;51.018;13.586;2023-07-29T23:20:12;97302.22;;;18.51;80.38
43155;BME280;34212;51.018;13.586;2023-07-29T23:25:13;97308.44;;;18.51;80.37
43155;BME280;34212;51.018;13.586;2023-07-29T23:30:15;97308.75;;;18.55;80.49
43155;BME280;34212;51.018;13.586;2023-07-29T23:35:17;97297.97;;;18.55;80.29
43155;BME280;34212;51.018;13.586;2023-07-29T23:40:18;97303.25;;;18.50;80.33
43155;BME280;34212;51.018;13.586;2023-07-29T23:45:20;97305.16;;;18.49;80.55
43155;BME280;34212;51.018;13.586;2023-07-29T23:50:21;97297.63;;;18.51;80.78
43155;BME280;34212;51.018;13.586;2023-07-29T23:55:23;97285.53;;;18.54;80.59
